Time;durP1;ratioP1;P1;durP2;ratioP2;P2;SDS_P1;SDS_P2;PMS_P1;PMS_P2;Temp;Humidity;BMP_temperature;BMP_pressure;BME280_temperature;BME280_humidity;BME280_pressure;Samples;Min_cycle;Max_cycle;Signal;HPM_P1;HPM_P2
2021/11/29 00:01:14;;;;;;;18.48;8.63;;;;;;;9.04;100.00;93052.94;5093544;28;20036;-72
2021/11/29 00:03:41;;;;;;;17.55;7.97;;;;;;;8.83;100.00;93034.03;5090541;28;20051;-73
2021/11/29 00:06:08;;;;;;;15.30;8.60;;;;;;;8.50;100.00;93028.41;5067418;28;20429;-72
2021/11/29 00:08:36;;;;;;;23.85;11.65;;;;;;;8.39;100.00;93026.78;5090344;28;20125;-72
2021/11/29 00:11:04;;;;;;;20.20;11.13;;;;;;;8.19;100.00;93033.56;5087466;28;20123;-72
2021/11/29 00:13:31;;;;;;;26.70;14.52;;;;;;;8.13;100.00;93024.22;5087455;28;20044;-72
2021/11/29 00:15:58;;;;;;;25.10;11.95;;;;;;;8.06;100.00;93023.69;5089499;28;20044;-72
2021/11/29 00:18:25;;;;;;;27.02;12.82;;;;;;;7.97;100.00;93030.44;5085925;28;20490;-72
2021/11/29 00:20:52;;;;;;;28.52;14.27;;;;;;;7.90;100.00;93035.09;5091190;28;20097;-73
2021/11/29 00:23:19;;;;;;;29.48;14.70;;;;;;;7.73;100.00;93030.94;5069289;28;20051;-71
2021/11/29 00:25:46;;;;;;;34.42;15.20;;;;;;;7.48;100.00;93039.44;5089223;28;20036;-71
2021/11/29 00:28:14;;;;;;;33.95;16.77;;;;;;;7.38;100.00;92992.75;5085649;28;20075;-71
2021/11/29 00:30:41;;;;;;;31.90;16.50;;;;;;;7.30;100.00;93006.22;5090368;28;20058;-77
2021/11/29 00:33:10;;;;;;;35.08;17.13;;;;;;;7.33;100.00;93016.84;5099542;28;20449;-76
2021/11/29 00:35:38;;;;;;;40.90;16.65;;;;;;;7.61;100.00;93022.63;5100859;28;20035;-77
2021/11/29 00:38:06;;;;;;;39.75;18.38;;;;;;;7.70;100.00;92995.16;5099503;28;20036;-78
2021/11/29 00:40:34;;;;;;;35.22;17.05;;;;;;;7.94;100.00;93015.38;5095408;28;20043;-76
2021/11/29 00:43:01;;;;;;;36.03;17.83;;;;;;;8.02;100.00;92991.56;5099832;28;20130;-77
2021/11/29 00:45:29;;;;;;;33.58;15.90;;;;;;;7.92;100.00;92961.22;5099650;28;20803;-77
2021/11/29 00:47:56;;;;;;;38.10;16.45;;;;;;;7.86;100.00;92977.81;5095919;28;20036;-77
2021/11/29 00:50:24;;;;;;;32.92;15.32;;;;;;;7.97;100.00;92983.78;5095423;28;20043;-77
2021/11/29 00:52:51;;;;;;;31.35;14.98;;;;;;;7.91;100.00;92964.09;5099701;28;20425;-77
2021/11/29 00:55:18;;;;;;;29.25;16.38;;;;;;;7.69;100.00;92962.53;5101858;28;20043;-77
2021/11/29 00:57:46;;;;;;;27.80;14.38;;;;;;;7.62;100.00;92967.19;5100907;28;20035;-78
2021/11/29 01:00:19;;;;;;;31.15;14.77;;;;;;;7.64;100.00;92965.09;5095317;28;20050;-80
2021/11/29 01:02:47;;;;;;;39.78;16.73;;;;;;;7.61;100.00;92960.44;5097481;28;20059;-79
2021/11/29 01:05:16;;;;;;;29.08;15.05;;;;;;;7.68;100.00;92970.56;5101614;28;20031;-80
2021/11/29 01:07:43;;;;;;;37.25;17.35;;;;;;;7.76;100.00;92963.03;5097954;28;20036;-79
2021/11/29 01:10:11;;;;;;;27.90;15.20;;;;;;;7.75;100.00;92961.47;5075833;28;20044;-80
2021/11/29 01:12:39;;;;;;;29.73;13.30;;;;;;;7.63;100.00;92979.09;5104548;28;20063;-80
2021/11/29 01:15:11;;;;;;;26.38;12.27;;;;;;;7.65;100.00;92977.00;5101084;28;20413;-79
2021/11/29 01:17:38;;;;;;;22.70;12.10;;;;;;;7.51;100.00;92983.72;5096595;28;20414;-80
2021/11/29 01:20:06;;;;;;;33.03;13.88;;;;;;;7.70;100.00;93005.53;5098921;28;20039;-79
2021/11/29 01:22:34;;;;;;;33.13;16.17;;;;;;;7.80;100.00;92992.59;5076524;28;20398;-79
2021/11/29 01:25:01;;;;;;;29.35;15.57;;;;;;;7.95;100.00;92985.84;5075861;28;20523;-78
2021/11/29 01:27:28;;;;;;;29.95;14.90;;;;;;;7.98;100.00;93000.91;5097138;28;20114;-77
2021/11/29 01:29:55;;;;;;;25.42;13.20;;;;;;;7.97;100.00;92988.97;5091368;28;20422;-76
2021/11/29 01:32:22;;;;;;;28.42;15.50;;;;;;;7.91;100.00;92990.00;5098134;28;20051;-75
2021/11/29 01:34:49;;;;;;;27.95;14.15;;;;;;;8.07;100.00;92986.38;5096203;28;20120;-76
2021/11/29 01:37:16;;;;;;;30.08;14.18;;;;;;;8.18;100.00;92969.75;5094733;28;20512;-75
2021/11/29 01:39:43;;;;;;;27.33;13.77;;;;;;;8.17;100.00;92950.03;5095497;28;20424;-77
2021/11/29 01:42:10;;;;;;;32.03;16.02;;;;;;;7.94;100.00;92958.34;5098969;28;21571;-77
2021/11/29 01:44:37;;;;;;;29.23;13.52;;;;;;;7.78;100.00;92944.66;5095949;28;20074;-76
2021/11/29 01:47:04;;;;;;;26.45;12.35;;;;;;;7.87;100.00;92927.53;5097555;28;20039;-77
2021/11/29 01:49:32;;;;;;;24.38;12.05;;;;;;;8.04;100.00;92919.47;5097902;28;20039;-76
2021/11/29 01:51:59;;;;;;;21.98;10.20;;;;;;;8.07;100.00;92916.38;5099994;28;20120;-76
2021/11/29 01:54:26;;;;;;;25.30;12.45;;;;;;;8.18;100.00;92928.28;5094823;28;20042;-76
2021/11/29 01:56:53;;;;;;;28.75;14.48;;;;;;;8.31;100.00;92931.38;5099162;28;20039;-77
2021/11/29 01:59:21;;;;;;;28.42;14.25;;;;;;;8.40;100.00;92930.56;5083306;28;20053;-76
2021/11/29 02:01:48;;;;;;;32.90;14.70;;;;;;;8.48;100.00;92925.91;5095671;28;20523;-76
2021/11/29 02:04:15;;;;;;;25.85;12.30;;;;;;;8.34;100.00;92889.34;5096845;28;20036;-77
2021/11/29 02:06:42;;;;;;;28.27;14.75;;;;;;;8.48;100.00;92916.31;5097046;28;20048;-77
2021/11/29 02:09:11;;;;;;;26.75;13.38;;;;;;;8.54;100.00;92914.47;5077141;28;20122;-76
2021/11/29 02:11:39;;;;;;;26.38;13.15;;;;;;;8.52;100.00;92901.75;5094535;28;20160;-77
2021/11/29 02:14:07;;;;;;;23.52;13.50;;;;;;;8.64;100.00;92892.91;5074310;28;20032;-77
2021/11/29 02:16:34;;;;;;;23.38;13.60;;;;;;;8.45;100.00;92897.91;5096338;28;20058;-77
2021/11/29 02:19:03;;;;;;;30.38;14.85;;;;;;;8.32;100.00;92881.03;5100925;28;20046;-78
2021/11/29 02:21:31;;;;;;;24.67;12.95;;;;;;;8.43;100.00;92892.97;5098094;28;20059;-78
2021/11/29 02:24:03;;;;;;;27.98;13.85;;;;;;;8.47;100.00;92888.81;5096103;28;20044;-77
2021/11/29 02:26:32;;;;;;;26.75;13.90;;;;;;;8.50;100.00;92880.50;5101530;28;20039;-78
2021/11/29 02:29:06;;;;;;;25.65;12.68;;;;;;;8.53;100.00;92872.16;5095200;28;20040;-78
2021/11/29 02:31:38;;;;;;;29.63;14.43;;;;;;;8.61;100.00;92869.03;5098676;28;20036;-78
2021/11/29 02:34:11;;;;;;;27.50;12.45;;;;;;;8.73;100.00;92847.19;5091914;28;20043;-78
2021/11/29 02:36:39;;;;;;;22.67;11.00;;;;;;;8.81;100.00;92841.44;5095795;28;20043;-78
2021/11/29 02:39:09;;;;;;;13.55;7.68;;;;;;;8.88;100.00;92847.09;5098020;28;20040;-78
2021/11/29 02:41:36;;;;;;;18.75;9.90;;;;;;;8.86;100.00;92859.59;5095972;28;20035;-78
2021/11/29 02:44:04;;;;;;;16.45;9.80;;;;;;;8.81;100.00;92833.66;5094370;28;20067;-77
2021/11/29 02:46:31;;;;;;;15.85;8.65;;;;;;;8.90;100.00;92839.81;5095509;28;20058;-78
2021/11/29 02:49:00;;;;;;;17.30;8.70;;;;;;;8.84;100.00;92838.31;5094429;28;20040;-79
2021/11/29 02:51:39;;;;;;;14.05;6.88;;;;;;;8.73;100.00;92839.38;5096458;28;20034;-78
2021/11/29 02:54:33;;;;;;;20.85;9.18;;;;;;;8.83;100.00;92844.53;5097004;28;20039;-78
2021/11/29 02:57:04;;;;;;;14.43;7.82;;;;;;;8.89;100.00;92833.06;5076080;28;20085;-79
2021/11/29 02:59:34;;;;;;;15.48;8.23;;;;;;;8.97;100.00;92827.31;5093742;28;20461;-78
2021/11/29 03:02:04;;;;;;;14.60;7.68;;;;;;;8.95;100.00;92832.00;5098537;28;20115;-78
2021/11/29 03:04:32;;;;;;;16.63;8.05;;;;;;;8.89;100.00;92833.06;5104078;28;20060;-78
2021/11/29 03:07:00;;;;;;;15.25;8.93;;;;;;;8.85;100.00;92878.03;5095392;28;20044;-78
2021/11/29 03:09:28;;;;;;;21.58;9.35;;;;;;;8.78;100.00;92873.09;5104170;28;20399;-78
2021/11/29 03:11:56;;;;;;;20.85;10.80;;;;;;;8.65;100.00;92863.31;5095612;28;20040;-75
2021/11/29 03:14:24;;;;;;;13.55;6.45;;;;;;;8.79;100.00;92864.28;5095425;28;20040;-74
2021/11/29 03:16:54;;;;;;;17.98;8.15;;;;;;;8.85;100.00;92868.41;5081879;28;20055;-75
2021/11/29 03:19:21;;;;;;;21.95;11.13;;;;;;;8.77;100.00;92871.56;5097625;28;20041;-74
2021/11/29 03:21:48;;;;;;;23.70;10.52;;;;;;;8.61;100.00;92853.47;5093021;28;20062;-73
2021/11/29 03:24:15;;;;;;;29.50;12.77;;;;;;;8.59;100.00;92860.75;5098660;28;20118;-73
2021/11/29 03:26:42;;;;;;;27.63;12.90;;;;;;;8.61;100.00;92874.22;5095926;28;20508;-74
2021/11/29 03:29:12;;;;;;;24.25;11.45;;;;;;;8.49;100.00;92834.84;5090889;28;20040;-75
2021/11/29 03:31:40;;;;;;;19.38;11.18;;;;;;;8.57;100.00;92883.59;5072712;28;20054;-74
2021/11/29 03:34:11;;;;;;;16.65;10.30;;;;;;;8.64;100.00;92872.13;5095937;28;20115;-75
2021/11/29 03:36:40;;;;;;;19.35;10.23;;;;;;;8.73;100.00;92878.31;5097861;28;20802;-74
2021/11/29 03:39:11;;;;;;;17.20;8.70;;;;;;;8.77;100.00;92881.97;5098836;28;20505;-75
2021/11/29 03:41:39;;;;;;;18.23;9.23;;;;;;;8.78;100.00;92899.84;5095523;28;20066;-75
2021/11/29 03:44:06;;;;;;;16.90;8.05;;;;;;;8.72;100.00;92915.72;5094477;28;20115;-74
2021/11/29 03:46:33;;;;;;;15.98;6.70;;;;;;;8.74;100.00;92898.06;5089908;28;20044;-74
2021/11/29 03:49:00;;;;;;;12.30;5.55;;;;;;;8.86;100.00;92890.72;5097171;28;20412;-73
2021/11/29 03:55:33;;;;;;;8.88;5.07;;;;;;;9.00;100.00;92885.72;4960897;28;20050;-74
2021/11/29 03:57:59;;;;;;;11.30;5.45;;;;;;;8.97;100.00;92861.06;4957760;28;20059;-74
2021/11/29 04:00:26;;;;;;;9.48;4.85;;;;;;;9.03;100.00;92840.28;4972324;28;20054;-74
2021/11/29 04:02:53;;;;;;;8.00;4.15;;;;;;;9.05;100.00;92853.75;4976719;28;20497;-74
2021/11/29 04:05:21;;;;;;;9.88;4.53;;;;;;;9.15;100.00;92858.91;4976179;28;20465;-74
2021/11/29 04:07:48;;;;;;;8.18;3.60;;;;;;;9.18;100.00;92855.75;4974052;28;20615;-75
2021/11/29 04:10:16;;;;;;;7.65;3.28;;;;;;;9.26;100.00;92878.56;4972999;28;20066;-75
2021/11/29 04:12:43;;;;;;;5.20;2.88;;;;;;;9.22;100.00;92882.75;4977228;28;20060;-74
2021/11/29 04:15:10;;;;;;;6.75;2.50;;;;;;;9.32;100.00;92885.25;4978961;28;20052;-73
2021/11/29 04:17:40;;;;;;;3.63;2.15;;;;;;;9.36;100.00;92883.69;4977591;28;20100;-74
2021/11/29 04:20:10;;;;;;;3.53;2.42;;;;;;;9.42;100.00;92881.03;4971779;28;20060;-74
2021/11/29 04:22:37;;;;;;;5.13;2.47;;;;;;;9.50;100.00;92877.88;4979916;28;20045;-75
2021/11/29 04:25:07;;;;;;;2.92;1.90;;;;;;;9.51;100.00;92875.00;4984074;28;20072;-74
2021/11/29 04:27:35;;;;;;;4.53;2.70;;;;;;;9.54;100.00;92878.88;4977592;28;20046;-74
2021/11/29 04:30:11;;;;;;;4.65;2.65;;;;;;;9.60;100.00;92872.59;4982444;28;20046;-75
2021/11/29 04:32:40;;;;;;;3.08;2.03;;;;;;;9.56;100.00;92850.78;5046734;28;20666;-74
2021/11/29 04:35:07;;;;;;;2.85;1.42;;;;;;;9.70;100.00;92843.91;5101729;28;20047;-75
2021/11/29 04:37:34;;;;;;;6.40;2.60;;;;;;;9.61;100.00;92837.75;5100028;28;20398;-74
2021/11/29 04:40:02;;;;;;;2.95;1.85;;;;;;;9.63;100.00;92830.47;5097951;28;20114;-74
2021/11/29 04:42:30;;;;;;;4.13;2.42;;;;;;;9.54;100.00;92826.91;5082896;28;20122;-74
2021/11/29 04:44:57;;;;;;;5.50;3.92;;;;;;;9.58;100.00;92825.31;5106558;28;20043;-74
2021/11/29 04:47:24;;;;;;;5.38;2.38;;;;;;;9.73;100.00;92825.19;5104299;28;20039;-74
2021/11/29 04:49:51;;;;;;;7.63;4.57;;;;;;;9.75;100.00;92804.88;5104615;28;20093;-75
2021/11/29 04:52:18;;;;;;;6.13;3.08;;;;;;;9.72;100.00;92823.66;5109254;28;20036;-75
2021/11/29 04:54:46;;;;;;;4.07;1.63;;;;;;;9.52;100.00;92834.19;5104223;28;20040;-75
2021/11/29 04:57:13;;;;;;;3.40;1.70;;;;;;;9.33;100.00;92821.88;5098340;28;20048;-75
2021/11/29 04:59:40;;;;;;;10.52;5.43;;;;;;;9.57;100.00;92862.75;5102029;28;21334;-75
2021/11/29 05:02:07;;;;;;;11.98;5.43;;;;;;;9.68;100.00;92859.00;5102787;28;20050;-75
2021/11/29 05:04:34;;;;;;;10.05;6.40;;;;;;;9.70;100.00;92856.91;5099442;28;20043;-74
2021/11/29 05:07:01;;;;;;;54.17;26.20;;;;;;;9.71;100.00;92860.31;5102014;28;20047;-75
2021/11/29 05:09:28;;;;;;;19.92;9.98;;;;;;;9.80;100.00;92868.28;5101299;28;20039;-75
2021/11/29 05:11:55;;;;;;;11.27;7.03;;;;;;;9.84;100.00;92871.88;5096900;28;20028;-75
2021/11/29 05:14:21;;;;;;;9.98;6.03;;;;;;;9.77;100.00;92857.38;5082605;28;20576;-75
2021/11/29 05:16:48;;;;;;;5.30;3.15;;;;;;;9.54;100.00;92879.66;5097446;28;20074;-75
2021/11/29 05:19:15;;;;;;;7.38;4.38;;;;;;;9.08;100.00;92887.00;5094898;28;20066;-74
2021/11/29 05:21:42;;;;;;;12.63;6.22;;;;;;;8.93;100.00;92906.78;5098703;28;20453;-75
2021/11/29 05:24:09;;;;;;;16.65;6.78;;;;;;;8.75;100.00;92891.81;5102407;28;20123;-75
2021/11/29 05:26:36;;;;;;;12.82;8.07;;;;;;;8.61;100.00;92900.19;5100327;28;20095;-75
2021/11/29 05:29:03;;;;;;;20.63;7.85;;;;;;;8.43;100.00;92877.41;5103284;28;20044;-75
2021/11/29 05:31:30;;;;;;;15.68;6.90;;;;;;;8.50;100.00;92890.09;5080752;28;20032;-74
2021/11/29 05:33:57;;;;;;;15.63;7.35;;;;;;;8.56;100.00;92871.66;5099941;28;20049;-74
2021/11/29 05:36:24;;;;;;;13.90;7.68;;;;;;;8.61;100.00;92858.66;5098832;28;20049;-74
2021/11/29 05:38:51;;;;;;;17.52;7.25;;;;;;;8.38;100.00;92854.06;5098152;28;20039;-75
2021/11/29 05:41:18;;;;;;;15.32;8.20;;;;;;;8.27;100.00;92868.09;5097220;28;20039;-74
2021/11/29 05:43:45;;;;;;;13.43;7.20;;;;;;;8.40;100.00;92870.13;5099582;28;20519;-74
2021/11/29 05:46:12;;;;;;;12.77;6.05;;;;;;;8.52;100.00;92865.44;5083034;28;20040;-74
2021/11/29 05:48:39;;;;;;;13.73;7.35;;;;;;;8.45;100.00;92880.50;5099532;28;20569;-74
2021/11/29 05:51:06;;;;;;;17.98;10.07;;;;;;;8.46;100.00;92882.06;5098119;28;20040;-74
2021/11/29 05:53:33;;;;;;;22.92;7.65;;;;;;;8.36;100.00;92871.69;5098773;28;20055;-74
2021/11/29 05:56:04;;;;;;;14.25;8.02;;;;;;;8.26;100.00;92876.91;5100286;28;20115;-74
2021/11/29 05:58:32;;;;;;;13.43;7.30;;;;;;;8.16;100.00;92883.69;5085835;28;20035;-74
2021/11/29 06:00:59;;;;;;;15.55;8.95;;;;;;;7.99;100.00;92862.44;5100635;28;20123;-74
2021/11/29 06:03:26;;;;;;;15.98;7.97;;;;;;;7.97;100.00;92854.16;5104495;28;20044;-73
2021/11/29 06:05:57;;;;;;;26.60;11.23;;;;;;;8.19;100.00;92859.81;5094661;28;20118;-75
2021/11/29 06:08:24;;;;;;;30.33;16.13;;;;;;;8.12;100.00;92846.34;5076084;28;20036;-74
2021/11/29 06:10:51;;;;;;;24.50;14.60;;;;;;;8.27;100.00;92868.09;5090379;28;20489;-73
2021/11/29 06:13:21;;;;;;;12.98;7.20;;;;;;;8.34;100.00;92868.59;5095554;28;20142;-76
2021/11/29 06:15:49;;;;;;;22.70;8.00;;;;;;;8.43;100.00;92872.22;5081327;28;20139;-75
2021/11/29 06:18:16;;;;;;;22.58;12.65;;;;;;;8.18;100.00;92876.41;5062215;28;20047;-73
2021/11/29 06:20:43;;;;;;;22.20;11.70;;;;;;;7.91;100.00;92891.50;5094810;28;20421;-75
2021/11/29 06:23:10;;;;;;;16.50;10.25;;;;;;;7.83;100.00;92874.66;5093447;28;20044;-74
2021/11/29 06:25:38;;;;;;;13.75;7.45;;;;;;;8.04;100.00;92896.91;5099588;28;20051;-74
2021/11/29 06:28:06;;;;;;;17.05;7.88;;;;;;;8.13;100.00;92894.56;5088214;28;20043;-74
2021/11/29 06:30:33;;;;;;;14.27;8.05;;;;;;;7.95;100.00;92897.72;5075804;28;20183;-74
2021/11/29 06:33:01;;;;;;;15.32;8.27;;;;;;;7.90;100.00;92905.50;5093203;28;20032;-73
2021/11/29 06:35:28;;;;;;;14.35;7.57;;;;;;;8.05;100.00;92923.63;5101242;28;20035;-74
2021/11/29 06:37:59;;;;;;;22.58;12.07;;;;;;;8.26;100.00;92926.19;5097341;28;20048;-76
2021/11/29 06:40:28;;;;;;;18.48;9.40;;;;;;;8.23;100.00;92941.25;5060644;28;20424;-74
2021/11/29 06:42:56;;;;;;;25.77;11.40;;;;;;;8.01;100.00;92892.28;5094620;28;20432;-73
2021/11/29 06:45:23;;;;;;;23.27;10.82;;;;;;;8.01;100.00;92917.41;5095087;28;20139;-73
2021/11/29 06:47:51;;;;;;;24.95;11.00;;;;;;;7.99;100.00;92927.25;5093577;28;20103;-73
2021/11/29 06:50:18;;;;;;;20.13;10.57;;;;;;;8.14;100.00;92927.25;5094224;28;20540;-74
2021/11/29 06:52:46;;;;;;;20.10;9.57;;;;;;;8.20;100.00;92940.97;5099386;28;20557;-74
2021/11/29 06:55:15;;;;;;;46.47;21.88;;;;;;;8.33;100.00;92944.84;5096053;28;20071;-73
2021/11/29 06:57:43;;;;;;;39.03;20.10;;;;;;;8.50;100.00;92932.38;5099409;28;20048;-73
2021/11/29 07:00:15;;;;;;;31.75;17.58;;;;;;;8.43;100.00;92921.50;5098249;28;20079;-73
2021/11/29 07:02:43;;;;;;;14.93;8.50;;;;;;;8.55;100.00;92955.72;5080462;28;20123;-74
2021/11/29 07:05:11;;;;;;;15.23;7.68;;;;;;;8.42;100.00;92961.47;5092642;28;20498;-73
2021/11/29 07:07:38;;;;;;;13.00;7.80;;;;;;;8.68;100.00;92966.56;5099006;28;20421;-73
2021/11/29 07:10:06;;;;;;;18.08;11.23;;;;;;;8.82;100.00;92954.59;5075156;28;20127;-74
2021/11/29 07:12:34;;;;;;;13.43;7.38;;;;;;;8.72;100.00;92957.25;5098671;28;20039;-74
2021/11/29 07:15:04;;;;;;;10.27;5.35;;;;;;;8.87;100.00;92959.78;5092588;28;21964;-74
2021/11/29 07:17:31;;;;;;;6.68;3.70;;;;;;;8.90;100.00;92954.06;5093395;28;20398;-74
2021/11/29 07:19:58;;;;;;;15.13;6.70;;;;;;;8.85;100.00;92956.66;5100269;28;20032;-74
2021/11/29 07:22:25;;;;;;;11.27;6.43;;;;;;;8.89;100.00;92957.69;5088317;28;20040;-73
2021/11/29 07:24:53;;;;;;;19.77;11.10;;;;;;;9.04;100.00;92958.66;5092900;28;20441;-74
2021/11/29 07:27:22;;;;;;;15.85;8.25;;;;;;;9.12;100.00;92977.06;5098426;28;20500;-76
2021/11/29 07:29:53;;;;;;;10.25;5.35;;;;;;;8.91;100.00;92979.00;5095894;28;20122;-75
2021/11/29 07:32:20;;;;;;;9.23;4.85;;;;;;;9.04;100.00;92982.03;5073658;28;20044;-75
2021/11/29 07:34:48;;;;;;;17.80;7.40;;;;;;;9.19;100.00;92961.19;5092121;28;20047;-76
2021/11/29 07:37:16;;;;;;;19.98;10.77;;;;;;;9.31;100.00;92959.06;5095821;28;20127;-75
2021/11/29 07:39:44;;;;;;;25.38;12.52;;;;;;;9.46;100.00;92954.81;5094602;28;20119;-76
2021/11/29 07:42:11;;;;;;;21.40;12.05;;;;;;;9.59;100.00;92964.59;5090598;28;20118;-75
2021/11/29 07:44:38;;;;;;;22.00;11.75;;;;;;;9.70;100.00;92976.47;5091120;28;20052;-76
2021/11/29 07:47:05;;;;;;;13.25;6.57;;;;;;;9.85;100.00;92977.44;5090190;28;20106;-76
2021/11/29 07:49:33;;;;;;;8.57;5.78;;;;;;;9.97;100.00;92970.06;5075662;28;20075;-76
2021/11/29 07:52:00;;;;;;;15.98;8.68;;;;;;;10.07;100.00;92985.59;5098908;28;20035;-77
2021/11/29 07:54:31;;;;;;;14.65;8.50;;;;;;;9.89;100.00;92986.25;5097006;28;20059;-76
2021/11/29 07:56:58;;;;;;;17.70;9.75;;;;;;;10.05;100.00;92998.09;5099661;28;20039;-77
2021/11/29 07:59:25;;;;;;;17.00;7.75;;;;;;;10.12;100.00;92993.34;5095944;28;20082;-76
2021/11/29 08:02:12;;;;;;;18.50;8.13;;;;;;;10.19;100.00;93002.66;5093005;28;20109;-75
2021/11/29 08:04:41;;;;;;;17.98;9.25;;;;;;;10.22;100.00;92996.94;5097224;28;20382;-75
2021/11/29 08:07:08;;;;;;;51.88;23.58;;;;;;;10.31;100.00;92996.09;5095478;28;20038;-74
2021/11/29 08:09:35;;;;;;;15.68;8.45;;;;;;;10.19;100.00;93023.47;5098013;28;20443;-77
2021/11/29 08:12:02;;;;;;;14.10;5.97;;;;;;;9.87;100.00;93024.75;5100835;28;20035;-75
2021/11/29 08:14:29;;;;;;;19.13;7.50;;;;;;;9.94;100.00;93002.59;5101117;28;20057;-76
2021/11/29 08:16:56;;;;;;;24.35;12.23;;;;;;;9.81;100.00;92982.38;5101852;28;20127;-75
2021/11/29 08:19:23;;;;;;;17.77;10.18;;;;;;;9.82;100.00;92988.38;5096965;28;20524;-76
2021/11/29 08:21:51;;;;;;;13.00;7.93;;;;;;;9.66;100.00;92987.72;5101044;28;20588;-77
2021/11/29 08:24:18;;;;;;;15.40;7.97;;;;;;;9.55;100.00;92981.78;5098760;28;20048;-75
2021/11/29 08:26:45;;;;;;;9.52;5.90;;;;;;;9.54;100.00;92967.22;5090501;28;20050;-75
2021/11/29 08:29:12;;;;;;;12.25;4.97;;;;;;;9.44;100.00;92990.69;5094569;28;20580;-74
2021/11/29 08:31:39;;;;;;;6.03;3.42;;;;;;;9.14;100.00;92984.59;5095565;28;20156;-76
2021/11/29 08:34:06;;;;;;;15.48;7.13;;;;;;;9.15;100.00;92991.34;5097477;28;20055;-77
2021/11/29 08:36:35;;;;;;;10.00;4.65;;;;;;;9.14;100.00;92989.78;5099715;28;20043;-76
2021/11/29 08:39:06;;;;;;;20.95;7.45;;;;;;;9.12;100.00;92965.91;5092597;28;20043;-78
2021/11/29 08:41:33;;;;;;;5.88;3.65;;;;;;;8.97;100.00;92964.16;5096796;28;20119;-78
2021/11/29 08:44:03;;;;;;;5.43;3.08;;;;;;;8.79;100.00;93066.75;5103064;28;20505;-78
2021/11/29 08:46:33;;;;;;;8.68;3.20;;;;;;;8.13;100.00;93127.94;5096609;28;20042;-82
2021/11/29 08:49:00;;;;;;;2.67;1.23;;;;;;;7.54;100.00;93180.09;5093586;28;20047;-73
2021/11/29 08:51:27;;;;;;;2.22;0.50;;;;;;;7.00;100.00;93163.75;5088435;28;20040;-75
2021/11/29 08:53:55;;;;;;;3.85;0.80;;;;;;;6.52;100.00;93183.56;5094437;28;20040;-72
2021/11/29 08:56:22;;;;;;;2.33;1.40;;;;;;;6.31;100.00;93167.84;5092317;28;20032;-73
2021/11/29 08:58:49;;;;;;;2.58;1.38;;;;;;;5.97;100.00;93175.03;5089783;28;20135;-72
2021/11/29 09:01:16;;;;;;;2.60;1.60;;;;;;;6.01;100.00;93177.91;5084787;28;20059;-72
2021/11/29 09:03:44;;;;;;;1.73;1.20;;;;;;;5.80;100.00;93185.41;5087201;28;20080;-72
2021/11/29 09:06:11;;;;;;;3.33;1.70;;;;;;;5.74;100.00;93191.53;5086740;28;20093;-72
2021/11/29 09:08:39;;;;;;;4.85;1.58;;;;;;;5.75;100.00;93200.84;5085052;28;20051;-72
2021/11/29 09:11:06;;;;;;;4.60;2.88;;;;;;;5.61;100.00;93195.25;5087166;28;20050;-73
2021/11/29 09:13:39;;;;;;;5.07;2.42;;;;;;;5.57;100.00;93193.41;5090704;28;20035;-73
2021/11/29 09:16:08;;;;;;;2.30;1.52;;;;;;;5.57;100.00;93208.91;5087970;28;20086;-73
2021/11/29 09:18:36;;;;;;;4.78;2.53;;;;;;;5.58;100.00;93210.44;5084814;28;20047;-72
2021/11/29 09:21:04;;;;;;;2.45;1.20;;;;;;;5.54;100.00;93216.06;5084146;28;20048;-73
2021/11/29 09:23:33;;;;;;;5.75;1.95;;;;;;;5.45;100.00;93196.84;5093389;28;20036;-72
2021/11/29 09:26:00;;;;;;;2.42;1.67;;;;;;;5.47;100.00;93215.47;5080888;28;20562;-73
2021/11/29 09:28:27;;;;;;;3.65;0.45;;;;;;;5.33;100.00;93203.91;5088319;28;20043;-74
2021/11/29 09:30:54;;;;;;;1.90;1.00;;;;;;;5.34;100.00;93237.25;5088638;28;20497;-73
2021/11/29 09:33:22;;;;;;;6.05;2.53;;;;;;;5.34;100.00;93254.53;5091022;28;20043;-73
2021/11/29 09:35:50;;;;;;;3.85;1.98;;;;;;;5.32;100.00;93264.31;5099233;28;20101;-76
2021/11/29 09:38:17;;;;;;;2.08;0.90;;;;;;;5.35;100.00;93248.38;5095551;28;20046;-75
2021/11/29 09:40:47;;;;;;;3.15;2.35;;;;;;;5.32;100.00;93238.50;5090507;28;20050;-75
2021/11/29 09:43:16;;;;;;;3.75;2.78;;;;;;;5.33;100.00;93219.41;5094117;28;20505;-74
2021/11/29 09:45:46;;;;;;;4.78;2.55;;;;;;;5.40;100.00;93214.84;5091648;28;20036;-74
2021/11/29 09:48:14;;;;;;;4.18;2.22;;;;;;;5.43;100.00;93245.38;5084045;28;20040;-74
2021/11/29 09:50:44;;;;;;;5.75;2.47;;;;;;;5.49;100.00;93265.09;5090957;28;20086;-74
2021/11/29 09:53:12;;;;;;;4.60;1.80;;;;;;;5.47;100.00;93272.28;5084670;28;20047;-73
2021/11/29 09:55:40;;;;;;;5.82;3.17;;;;;;;5.38;100.00;93258.22;5086319;28;20059;-74
2021/11/29 09:58:08;;;;;;;9.48;3.67;;;;;;;5.53;100.00;93261.03;5083375;28;20048;-75
2021/11/29 10:00:41;;;;;;;10.63;3.33;;;;;;;5.70;100.00;93249.88;5085302;28;20048;-75
2021/11/29 10:03:09;;;;;;;3.45;2.20;;;;;;;5.76;100.00;93233.41;5093045;28;20040;-75
2021/11/29 10:05:37;;;;;;;16.52;3.72;;;;;;;5.75;100.00;93231.84;5088289;28;20040;-75
2021/11/29 10:08:25;;;;;;;10.05;3.42;;;;;;;5.81;100.00;93241.22;5097325;28;20422;-75
2021/11/29 10:11:15;;;;;;;3.17;1.90;;;;;;;5.74;100.00;93230.28;5097777;28;20035;-75
2021/11/29 10:13:56;;;;;;;3.53;1.80;;;;;;;5.64;100.00;93246.44;5092929;28;20074;-75
2021/11/29 10:16:36;;;;;;;4.38;2.35;;;;;;;5.64;100.00;93253.41;5085612;28;20558;-76
2021/11/29 10:19:09;;;;;;;3.53;1.88;;;;;;;5.58;100.00;93277.59;5077983;28;20043;-75
2021/11/29 10:21:36;;;;;;;7.38;2.80;;;;;;;5.31;100.00;93263.56;5084462;28;20040;-74
2021/11/29 10:24:11;;;;;;;12.35;5.35;;;;;;;5.49;100.00;93270.25;5066196;28;20051;-75
2021/11/29 10:26:38;;;;;;;5.43;3.17;;;;;;;5.52;100.00;93269.00;5094143;28;20048;-75
2021/11/29 10:29:12;;;;;;;4.68;2.97;;;;;;;5.41;100.00;93270.66;5091634;28;20051;-75
2021/11/29 10:31:45;;;;;;;8.45;4.30;;;;;;;5.50;100.00;93264.06;5087836;28;20050;-76
2021/11/29 10:34:18;;;;;;;9.68;4.35;;;;;;;5.46;100.00;93257.81;5083222;28;20044;-74
2021/11/29 10:36:48;;;;;;;3.95;2.50;;;;;;;5.17;100.00;93232.13;5087208;28;20047;-76
2021/11/29 10:39:23;;;;;;;6.72;3.95;;;;;;;5.31;100.00;93247.25;5089500;28;20055;-75
2021/11/29 10:41:56;;;;;;;5.10;3.40;;;;;;;5.37;100.00;93236.00;5092670;28;20032;-77
2021/11/29 10:44:27;;;;;;;5.90;2.30;;;;;;;5.33;100.00;93240.06;5094594;28;20496;-75
2021/11/29 10:47:06;;;;;;;3.47;1.48;;;;;;;5.31;100.00;93245.47;5092968;28;20040;-75
2021/11/29 10:49:38;;;;;;;7.47;4.00;;;;;;;5.16;100.00;93234.94;5090555;28;20067;-75
2021/11/29 10:52:06;;;;;;;6.80;2.47;;;;;;;5.05;100.00;93238.38;5094685;28;20505;-76
2021/11/29 10:54:35;;;;;;;27.42;11.60;;;;;;;5.16;100.00;93240.09;5096173;28;20039;-75
2021/11/29 10:57:03;;;;;;;20.20;7.88;;;;;;;5.31;100.00;93236.94;5097104;28;20119;-76
2021/11/29 10:59:35;;;;;;;5.90;3.13;;;;;;;5.28;100.00;93237.44;5074370;28;20130;-76
2021/11/29 11:02:10;;;;;;;13.35;4.35;;;;;;;5.20;100.00;93235.25;5094905;28;20044;-76
2021/11/29 11:04:41;;;;;;;6.88;3.58;;;;;;;5.09;100.00;93223.97;5090832;28;20044;-76
2021/11/29 11:07:20;;;;;;;5.00;2.90;;;;;;;5.09;100.00;93227.34;5089613;28;20056;-78
2021/11/29 11:09:55;;;;;;;33.63;10.43;;;;;;;5.09;100.00;93240.25;5095208;28;20153;-78
2021/11/29 11:12:27;;;;;;;11.77;6.00;;;;;;;4.99;100.00;93214.31;5088420;28;20047;-78
2021/11/29 11:15:02;;;;;;;18.77;10.30;;;;;;;5.09;100.00;93224.75;5075967;28;20044;-76
2021/11/29 11:17:54;;;;;;;5.95;3.50;;;;;;;5.23;100.00;93245.88;5091676;28;20036;-74
2021/11/29 11:20:25;;;;;;;9.40;6.03;;;;;;;5.26;100.00;93260.13;5089773;28;20119;-76
2021/11/29 11:22:52;;;;;;;10.13;4.60;;;;;;;5.24;100.00;93264.72;5098873;28;20115;-76
2021/11/29 11:25:26;;;;;;;6.10;4.20;;;;;;;5.26;100.00;93265.28;5090308;28;20064;-75
2021/11/29 11:28:11;;;;;;;4.18;2.92;;;;;;;5.09;100.00;93265.28;5093832;28;20123;-75
2021/11/29 11:30:40;;;;;;;5.07;2.83;;;;;;;5.11;100.00;93258.88;5090950;28;20036;-75
2021/11/29 11:33:11;;;;;;;4.35;2.53;;;;;;;5.14;100.00;93227.41;5092901;28;20028;-76
2021/11/29 11:35:42;;;;;;;5.43;3.15;;;;;;;5.33;100.00;93225.38;5073894;28;20090;-76